Terminal Aerodrome Forecast
Issued by NWS

Home | Current Version | Previous Version | Text Only | Print | Product List | Glossary On
Versions: 1 2 3 4 5 6 7 8 9 10 11 12 13 14 15 16 17 18
000
FTUS43 KFGF 210520
TAFBJI
TAF
KBJI 210520Z 2106/2206 27006KT 5SM BR OVC004
     FM210800 24005KT 1/2SM FG BKN003
     FM211400 20006KT 2SM BR BKN015
     FM211600 20010KT P6SM SCT070=

USA.gov is the U.S. government's official web portal to all federal, state and local government web resources and services.